Terminal Aerodrome Forecast
Issued by NWS

Current Version | Previous Version | Text Only | Print | Product List | Glossary Off
Versions: 1 2 3 4 5 6 7 8 9 10 11 12 13 14 15 16 17 18

000
FTUS41 KRNK 170302 AAA
TAFLWB
TAF AMD
KLWB 170302Z 1703/1724 33008KT P6SM OVC018
     FM170600 33006KT P6SM BKN060
     FM170900 00000KT P6SM SCT080
     FM171800 13004KT 1/2SM -RA OVC010
     FM172000 12004KT 1SM -SN OVC008
     FM172300 VRB03KT 2SM -SNPL OVC010=

USA.gov is the U.S. government's official web portal to all federal, state and local government web resources and services.